Time,TemperatureF,DewpointF,PressureIn,WindDirection,WindDirectionDegrees,WindSpeedMPH,WindSpeedGustMPH,Humidity,HourlyPrecipIn,Conditions,Clouds,dailyrainin,SolarRadiationWatts/m^2,SoftwareType,DateUTC
2013-02-04 00:04:00,28.2,19.7,29.82,East,90,1.0,2.0,70,0.00,,,0.00,0000,Weather View 32 v70,2013-02-04 06:04:00,
2013-02-04 00:09:00,28.2,19.7,29.82,ESE,112,1.0,2.0,70,0.00,,,0.00,0000,Weather View 32 v70,2013-02-04 06:09:00,
2013-02-04 00:14:00,28.2,19.7,29.82,East,90,1.0,2.0,70,0.00,,,0.00,0000,Weather View 32 v70,2013-02-04 06:14:00,
2013-02-04 00:19:00,28.2,19.7,29.82,ENE,68,1.0,2.0,70,0.00,,,0.00,0000,Weather View 32 v70,2013-02-04 06:19:00,
2013-02-04 00:24:00,28.2,19.7,29.82,ESE,112,2.0,2.0,70,0.00,,,0.00,0000,Weather View 32 v70,2013-02-04 06:24:00,
2013-02-04 00:34:00,28.2,19.7,29.82,SSE,158,2.0,2.0,70,0.00,,,0.00,0000,Weather View 32 v70,2013-02-04 06:34:00,
2013-02-04 00:39:00,28.2,19.7,29.82,NE,45,2.0,2.0,70,0.00,,,0.00,0000,Weather View 32 v70,2013-02-04 06:39:00,
2013-02-04 00:44:00,28.2,20.0,29.80,ESE,112,2.0,2.0,71,0.00,,,0.00,0000,Weather View 32 v70,2013-02-04 06:44:00,
2013-02-04 00:49:00,28.2,20.0,29.80,SE,135,2.0,2.0,71,0.00,,,0.00,0000,Weather View 32 v70,2013-02-04 06:49:00,
2013-02-04 00:54:00,28.2,20.0,29.80,ENE,68,1.0,2.0,71,0.00,,,0.00,0000,Weather View 32 v70,2013-02-04 06:54:00,
2013-02-04 00:59:00,27.9,19.7,29.80,NNE,22,1.0,2.0,71,0.00,,,0.00,0000,Weather View 32 v70,2013-02-04 06:59:00,
2013-02-04 01:04:00,27.9,19.7,29.79,West,270,1.0,2.0,71,0.00,,,0.00,0000,Weather View 32 v70,2013-02-04 07:04:00,
2013-02-04 01:09:00,27.9,19.7,29.79,East,90,1.0,2.0,71,0.00,,,0.00,0000,Weather View 32 v70,2013-02-04 07:09:00,
2013-02-04 01:14:00,27.9,20.0,29.79,SSE,158,1.0,2.0,72,0.00,,,0.00,0000,Weather View 32 v70,2013-02-04 07:14:00,
2013-02-04 01:19:00,27.9,20.0,29.79,ESE,112,2.0,2.0,72,0.00,,,0.00,0000,Weather View 32 v70,2013-02-04 07:19:00,
2013-02-04 01:24:00,27.9,20.0,29.78,East,90,2.0,2.0,72,0.00,,,0.00,0000,Weather View 32 v70,2013-02-04 07:24:00,
2013-02-04 01:30:00,27.9,20.0,29.78,East,90,2.0,2.0,72,0.00,,,0.00,0000,Weather View 32 v70,2013-02-04 07:30:00,
2013-02-04 01:39:00,27.9,20.0,29.78,South,180,2.0,2.0,72,0.00,,,0.00,0000,Weather View 32 v70,2013-02-04 07:39:00,
2013-02-04 01:44:00,27.9,20.0,29.77,East,90,2.0,2.0,72,0.00,,,0.00,0000,Weather View 32 v70,2013-02-04 07:44:00,
2013-02-04 01:49:00,27.9,20.0,29.77,West,270,1.0,2.0,72,0.00,,,0.00,0000,Weather View 32 v70,2013-02-04 07:49:00,
2013-02-04 01:54:00,27.9,20.0,29.77,ENE,68,1.0,2.0,72,0.00,,,0.00,0000,Weather View 32 v70,2013-02-04 07:54:00,
2013-02-04 01:59:00,27.9,20.0,29.77,NNE,22,1.0,2.0,72,0.00,,,0.00,0000,Weather View 32 v70,2013-02-04 07:59:00,
2013-02-04 02:04:00,27.9,20.0,29.76,NNE,22,2.0,2.0,72,0.00,,,0.00,0000,Weather View 32 v70,2013-02-04 08:04:00,
2013-02-04 02:09:00,27.9,20.3,29.76,NNE,22,2.0,2.0,73,0.00,,,0.00,0000,Weather View 32 v70,2013-02-04 08:09:00,
2013-02-04 02:14:00,27.9,20.3,29.76,ENE,68,1.0,2.0,73,0.00,,,0.00,0000,Weather View 32 v70,2013-02-04 08:14:00,
2013-02-04 02:19:00,27.9,20.3,29.76,ENE,68,1.0,2.0,73,0.00,,,0.00,0000,Weather View 32 v70,2013-02-04 08:19:00,
2013-02-04 02:24:00,28.2,20.7,29.76,East,90,1.0,2.0,73,0.00,,,0.00,0000,Weather View 32 v70,2013-02-04 08:24:00,
2013-02-04 02:29:00,28.0,20.5,29.76,ENE,68,1.0,2.0,73,0.00,,,0.00,0000,Weather View 32 v70,2013-02-04 08:29:00,
2013-02-04 02:39:00,28.2,20.7,29.76,ENE,68,1.0,2.0,73,0.00,,,0.00,0000,Weather View 32 v70,2013-02-04 08:39:00,
2013-02-04 02:44:00,28.2,20.7,29.75,ESE,112,1.0,2.0,73,0.00,,,0.00,0000,Weather View 32 v70,2013-02-04 08:44:00,
2013-02-04 02:49:00,28.2,20.7,29.75,East,90,2.0,2.0,73,0.00,,,0.00,0000,Weather View 32 v70,2013-02-04 08:49:00,
2013-02-04 02:54:00,28.4,20.9,29.75,West,270,2.0,2.0,73,0.00,,,0.00,0000,Weather View 32 v70,2013-02-04 08:54:00,
2013-02-04 02:59:00,28.6,21.3,29.75,North,0,1.0,2.0,74,0.00,,,0.00,0000,Weather View 32 v70,2013-02-04 08:59:00,
2013-02-04 03:04:00,28.6,21.0,29.74,ESE,112,2.0,2.0,73,0.00,,,0.00,0000,Weather View 32 v70,2013-02-04 09:04:00,
2013-02-04 03:09:00,28.6,21.0,29.74,East,90,2.0,2.0,73,0.00,,,0.00,0000,Weather View 32 v70,2013-02-04 09:09:00,
2013-02-04 03:14:00,28.9,21.4,29.74,East,90,1.0,2.0,73,0.00,,,0.00,0000,Weather View 32 v70,2013-02-04 09:14:00,
2013-02-04 03:19:00,28.9,21.4,29.74,East,90,1.0,2.0,73,0.00,,,0.00,0000,Weather View 32 v70,2013-02-04 09:19:00,
2013-02-04 03:24:00,28.9,21.7,29.73,East,90,1.0,2.0,74,0.00,,,0.00,0000,Weather View 32 v70,2013-02-04 09:24:00,
2013-02-04 03:31:00,28.9,21.7,29.73,ENE,68,1.0,2.0,74,0.00,,,0.00,0000,Weather View 32 v70,2013-02-04 09:31:00,
2013-02-04 03:39:00,28.9,21.4,29.73,NNE,22,1.0,2.0,73,0.00,,,0.00,0000,Weather View 32 v70,2013-02-04 09:39:00,
2013-02-04 03:44:00,28.9,21.7,29.71,NE,45,1.0,2.0,74,0.00,,,0.00,0000,Weather View 32 v70,2013-02-04 09:44:00,
2013-02-04 03:49:00,29.1,21.9,29.71,NE,45,1.0,2.0,74,0.00,,,0.00,0000,Weather View 32 v70,2013-02-04 09:49:00,
2013-02-04 03:54:00,29.1,21.5,29.71,ENE,68,1.0,2.0,73,0.00,,,0.00,0000,Weather View 32 v70,2013-02-04 09:54:00,
2013-02-04 03:59:00,29.3,21.7,29.71,NNE,22,1.0,2.0,73,0.00,,,0.00,0000,Weather View 32 v70,2013-02-04 09:59:00,
2013-02-04 04:04:00,29.3,22.0,29.70,ENE,68,1.0,2.0,74,0.00,,,0.00,0000,Weather View 32 v70,2013-02-04 10:04:00,
2013-02-04 04:09:00,29.7,22.1,29.70,East,90,1.0,2.0,73,0.00,,,0.00,0000,Weather View 32 v70,2013-02-04 10:09:00,
2013-02-04 04:14:00,29.7,22.4,29.70,NNE,22,1.0,2.0,74,0.00,,,0.00,0000,Weather View 32 v70,2013-02-04 10:14:00,
2013-02-04 04:19:00,29.7,22.4,29.70,NE,45,1.0,2.0,74,0.00,,,0.00,0000,Weather View 32 v70,2013-02-04 10:19:00,
2013-02-04 04:24:00,29.7,22.4,29.69,NNE,22,1.0,2.0,74,0.00,,,0.00,0000,Weather View 32 v70,2013-02-04 10:24:00,
2013-02-04 04:31:00,29.7,22.4,29.69,NNE,22,1.0,2.0,74,0.00,,,0.00,0000,Weather View 32 v70,2013-02-04 10:31:00,
2013-02-04 04:39:00,30.0,22.7,29.69,ENE,68,1.0,2.0,74,0.00,,,0.00,0000,Weather View 32 v70,2013-02-04 10:39:00,
2013-02-04 04:44:00,30.0,22.7,29.68,East,90,1.0,2.0,74,0.00,,,0.00,0000,Weather View 32 v70,2013-02-04 10:44:00,
2013-02-04 04:49:00,30.4,23.1,29.68,ESE,112,1.0,2.0,74,0.00,,,0.00,0000,Weather View 32 v70,2013-02-04 10:49:00,
2013-02-04 04:54:00,30.4,23.1,29.68,ENE,68,2.0,2.0,74,0.00,,,0.00,0000,Weather View 32 v70,2013-02-04 10:54:00,
2013-02-04 04:59:00,30.4,23.1,29.68,ENE,68,2.0,2.0,74,0.00,,,0.00,0000,Weather View 32 v70,2013-02-04 10:59:00,
2013-02-04 05:04:00,30.4,22.8,29.68,NNE,22,1.0,2.0,73,0.00,,,0.00,0000,Weather View 32 v70,2013-02-04 11:04:00,
2013-02-04 05:09:00,30.7,23.4,29.68,NNE,22,1.0,2.0,74,0.00,,,0.00,0000,Weather View 32 v70,2013-02-04 11:09:00,
2013-02-04 05:14:00,30.7,23.4,29.68,ENE,68,1.0,2.0,74,0.00,,,0.00,0000,Weather View 32 v70,2013-02-04 11:14:00,
2013-02-04 05:24:00,31.1,23.8,29.67,ENE,68,1.0,2.0,74,0.00,,,0.00,0000,Weather View 32 v70,2013-02-04 11:24:00,
2013-02-04 05:29:00,31.1,23.8,29.67,NNE,22,1.0,2.0,74,0.00,,,0.00,0000,Weather View 32 v70,2013-02-04 11:29:00,
2013-02-04 05:34:00,31.1,23.8,29.67,NE,45,1.0,2.0,74,0.00,,,0.00,0000,Weather View 32 v70,2013-02-04 11:34:00,
2013-02-04 05:39:00,31.1,23.8,29.67,North,0,1.0,2.0,74,0.00,,,0.00,0000,Weather View 32 v70,2013-02-04 11:39:00,
2013-02-04 05:44:00,31.3,24.0,29.67,ENE,68,1.0,2.0,74,0.00,,,0.00,0000,Weather View 32 v70,2013-02-04 11:44:00,
2013-02-04 05:49:00,31.3,24.0,29.67,ENE,68,1.0,2.0,74,0.00,,,0.00,0000,Weather View 32 v70,2013-02-04 11:49:00,
2013-02-04 05:54:00,31.5,24.1,29.67,ESE,112,1.0,2.0,74,0.00,,,0.00,0000,Weather View 32 v70,2013-02-04 11:54:00,
2013-02-04 05:59:00,31.5,24.1,29.67,East,90,1.0,2.0,74,0.00,,,0.00,0000,Weather View 32 v70,2013-02-04 11:59:00,
2013-02-04 06:04:00,31.8,24.1,29.66,ENE,68,1.0,1.0,73,0.00,,,0.00,0000,Weather View 32 v70,2013-02-04 12:04:00,
2013-02-04 06:14:00,31.8,24.1,29.66,ESE,112,1.0,1.0,73,0.00,,,0.00,0000,Weather View 32 v70,2013-02-04 12:14:00,
2013-02-04 06:19:00,31.8,24.1,29.66,ENE,68,1.0,1.0,73,0.00,,,0.00,0000,Weather View 32 v70,2013-02-04 12:19:00,
2013-02-04 06:24:00,32.2,24.5,29.65,ENE,68,1.0,1.0,73,0.00,,,0.00,0000,Weather View 32 v70,2013-02-04 12:24:00,
2013-02-04 06:29:00,32.0,24.3,29.65,NE,45,1.0,1.0,73,0.00,,,0.00,0000,Weather View 32 v70,2013-02-04 12:29:00,
2013-02-04 06:34:00,32.0,24.3,29.65,ENE,68,1.0,1.0,73,0.00,,,0.00,0000,Weather View 32 v70,2013-02-04 12:34:00,
2013-02-04 06:39:00,32.2,24.8,29.65,East,90,1.0,1.0,74,0.00,,,0.00,0000,Weather View 32 v70,2013-02-04 12:39:00,
2013-02-04 06:44:00,32.2,24.8,29.64,ESE,112,1.0,1.0,74,0.00,,,0.00,0000,Weather View 32 v70,2013-02-04 12:44:00,
2013-02-04 06:49:00,32.2,24.8,29.64,ESE,112,2.0,2.0,74,0.00,,,0.00,0000,Weather View 32 v70,2013-02-04 12:49:00,
2013-02-04 06:54:00,32.2,24.5,29.64,ENE,68,1.0,2.0,73,0.00,,,0.00,0000,Weather View 32 v70,2013-02-04 12:54:00,
2013-02-04 06:59:00,32.5,24.8,29.64,ESE,112,1.0,2.0,73,0.00,,,0.00,0000,Weather View 32 v70,2013-02-04 12:59:00,
2013-02-04 07:09:00,32.5,25.2,29.65,ENE,68,1.0,2.0,74,0.00,,,0.00,0000,Weather View 32 v70,2013-02-04 13:09:00,
2013-02-04 07:14:00,32.5,25.2,29.65,ENE,68,1.0,2.0,74,0.00,,,0.00,0000,Weather View 32 v70,2013-02-04 13:14:00,
2013-02-04 07:19:00,32.5,25.2,29.65,ESE,112,1.0,2.0,74,0.00,,,0.00,0000,Weather View 32 v70,2013-02-04 13:19:00,
2013-02-04 07:24:00,32.7,25.3,29.64,ENE,68,1.0,2.0,74,0.00,,,0.00,0000,Weather View 32 v70,2013-02-04 13:24:00,
2013-02-04 07:29:00,32.9,25.2,29.64,ENE,68,1.0,2.0,73,0.00,,,0.00,0000,Weather View 32 v70,2013-02-04 13:29:00,
2013-02-04 07:34:00,33.1,25.4,29.64,NNE,22,0.0,2.0,73,0.00,,,0.00,0000,Weather View 32 v70,2013-02-04 13:34:00,
2013-02-04 07:39:00,33.3,25.5,29.64,ENE,68,0.0,2.0,73,0.00,,,0.00,0000,Weather View 32 v70,2013-02-04 13:39:00,
2013-02-04 07:44:00,33.3,25.5,29.65,NNE,22,0.0,2.0,73,0.00,,,0.00,0000,Weather View 32 v70,2013-02-04 13:44:00,
2013-02-04 07:49:00,33.6,25.9,29.65,North,0,0.0,2.0,73,0.00,,,0.00,0000,Weather View 32 v70,2013-02-04 13:49:00,
2013-02-04 07:54:00,33.4,26.0,29.65,NW,315,1.0,1.0,74,0.00,,,0.00,0000,Weather View 32 v70,2013-02-04 13:54:00,
2013-02-04 08:04:00,33.6,26.2,29.67,North,0,1.0,1.0,74,0.00,,,0.00,0000,Weather View 32 v70,2013-02-04 14:04:00,
2013-02-04 08:09:00,34.0,26.6,29.67,North,0,0.0,1.0,74,0.00,,,0.00,0000,Weather View 32 v70,2013-02-04 14:09:00,
2013-02-04 08:14:00,34.0,26.6,29.67,West,270,0.0,1.0,74,0.00,,,0.00,0000,Weather View 32 v70,2013-02-04 14:14:00,
2013-02-04 08:19:00,34.3,26.9,29.67,North,0,1.0,1.0,74,0.00,,,0.00,0000,Weather View 32 v70,2013-02-04 14:19:00,
2013-02-04 08:24:00,34.3,27.2,29.71,ENE,68,1.0,1.0,75,0.00,,,0.00,0000,Weather View 32 v70,2013-02-04 14:24:00,
2013-02-04 08:29:00,34.5,27.4,29.71,NNE,22,0.0,1.0,75,0.00,,,0.00,0000,Weather View 32 v70,2013-02-04 14:29:00,
2013-02-04 08:34:00,34.7,27.6,29.71,West,270,0.0,1.0,75,0.00,,,0.00,0000,Weather View 32 v70,2013-02-04 14:34:00,
2013-02-04 08:39:00,34.9,27.8,29.71,West,270,0.0,1.0,75,0.00,,,0.00,0000,Weather View 32 v70,2013-02-04 14:39:00,
2013-02-04 08:44:00,35.1,27.9,29.72,ESE,112,0.0,1.0,75,0.00,,,0.00,0000,Weather View 32 v70,2013-02-04 14:44:00,
2013-02-04 08:54:00,35.8,28.6,29.72,ESE,112,0.0,1.0,75,0.00,,,0.00,0000,Weather View 32 v70,2013-02-04 14:54:00,
2013-02-04 08:59:00,36.3,29.1,29.72,East,90,0.0,1.0,75,0.00,,,0.00,0000,Weather View 32 v70,2013-02-04 14:59:00,
2013-02-04 09:04:00,36.5,29.0,29.72,ENE,68,0.0,1.0,74,0.00,,,0.00,0000,Weather View 32 v70,2013-02-04 15:04:00,
2013-02-04 09:09:00,37.2,29.4,29.72,SE,135,0.0,1.0,73,0.00,,,0.00,0000,Weather View 32 v70,2013-02-04 15:09:00,
2013-02-04 09:14:00,37.6,29.7,29.72,ESE,112,0.0,1.0,73,0.00,,,0.00,0000,Weather View 32 v70,2013-02-04 15:14:00,
2013-02-04 09:19:00,37.9,30.1,29.72,SE,135,0.0,1.0,73,0.00,,,0.00,0000,Weather View 32 v70,2013-02-04 15:19:00,
2013-02-04 09:24:00,38.5,29.9,29.72,ESE,112,1.0,1.0,71,0.00,,,0.00,0000,Weather View 32 v70,2013-02-04 15:24:00,
2013-02-04 09:29:00,38.7,30.1,29.72,ENE,68,1.0,1.0,71,0.00,,,0.00,0000,Weather View 32 v70,2013-02-04 15:29:00,
2013-02-04 09:34:00,39.2,30.2,29.72,ESE,112,1.0,1.0,70,0.00,,,0.00,0000,Weather View 32 v70,2013-02-04 15:34:00,
2013-02-04 09:39:00,39.7,30.7,29.72,East,90,1.0,1.0,70,0.00,,,0.00,0000,Weather View 32 v70,2013-02-04 15:39:00,
2013-02-04 09:44:00,40.5,31.1,29.71,SE,135,1.0,1.0,69,0.00,,,0.00,0000,Weather View 32 v70,2013-02-04 15:44:00,
2013-02-04 09:54:00,41.0,31.2,29.71,East,90,1.0,1.0,68,0.00,,,0.00,0000,Weather View 32 v70,2013-02-04 15:54:00,
2013-02-04 09:59:00,41.4,31.2,29.71,ESE,112,1.0,1.0,67,0.00,,,0.00,0000,Weather View 32 v70,2013-02-04 15:59:00,
2013-02-04 10:04:00,41.7,31.6,29.72,East,90,1.0,1.0,67,0.00,,,0.00,0000,Weather View 32 v70,2013-02-04 16:04:00,
2013-02-04 10:09:00,42.1,31.5,29.72,ESE,112,1.0,1.0,66,0.00,,,0.00,0000,Weather View 32 v70,2013-02-04 16:09:00,
2013-02-04 10:14:00,42.6,32.0,29.72,East,90,1.0,1.0,66,0.00,,,0.00,0000,Weather View 32 v70,2013-02-04 16:14:00,
2013-02-04 10:19:00,43.0,32.0,29.72,ESE,112,1.0,1.0,65,0.00,,,0.00,0000,Weather View 32 v70,2013-02-04 16:19:00,
2013-02-04 10:24:00,43.3,32.0,29.71,SSE,158,1.0,1.0,64,0.00,,,0.00,0000,Weather View 32 v70,2013-02-04 16:24:00,
2013-02-04 10:29:00,43.7,32.3,29.71,SE,135,1.0,1.0,64,0.00,,,0.00,0000,Weather View 32 v70,2013-02-04 16:29:00,
2013-02-04 10:35:00,44.4,33.0,29.71,South,180,2.0,2.0,64,0.00,,,0.00,0000,Weather View 32 v70,2013-02-04 16:35:00,
2013-02-04 10:44:00,45.9,33.6,29.71,South,180,2.0,3.0,62,0.00,,,0.00,0000,Weather View 32 v70,2013-02-04 16:44:00,
2013-02-04 10:49:00,47.1,35.2,29.71,South,180,2.0,3.0,63,0.03,,,0.03,0000,Weather View 32 v70,2013-02-04 16:49:00,
2013-02-04 10:54:00,47.7,35.3,29.71,South,180,3.0,3.0,62,0.03,,,0.03,0000,Weather View 32 v70,2013-02-04 16:54:00,
2013-02-04 10:59:00,47.1,33.5,29.71,South,180,3.0,3.0,59,0.03,,,0.03,0000,Weather View 32 v70,2013-02-04 16:59:00,
2013-02-04 11:09:00,47.1,33.9,29.69,South,180,3.0,3.0,60,0.03,,,0.03,0000,Weather View 32 v70,2013-02-04 17:09:00,
2013-02-04 11:14:00,47.1,33.9,29.69,South,180,3.0,3.0,60,0.03,,,0.03,0000,Weather View 32 v70,2013-02-04 17:14:00,
2013-02-04 11:19:00,46.9,33.8,29.69,WSW,248,3.0,3.0,60,0.03,,,0.03,0000,Weather View 32 v70,2013-02-04 17:19:00,
2013-02-04 11:24:00,46.9,33.8,29.69,SSE,158,3.0,3.0,60,0.03,,,0.03,0000,Weather View 32 v70,2013-02-04 17:24:00,
2013-02-04 11:29:00,47.1,33.9,29.69,South,180,2.0,3.0,60,0.03,,,0.03,0000,Weather View 32 v70,2013-02-04 17:29:00,
2013-02-04 11:34:00,47.8,34.6,29.69,South,180,3.0,3.0,60,0.03,,,0.03,0000,Weather View 32 v70,2013-02-04 17:34:00,
2013-02-04 11:39:00,48.0,34.8,29.69,SSW,202,3.0,3.0,60,0.03,,,0.03,0000,Weather View 32 v70,2013-02-04 17:39:00,
2013-02-04 11:44:00,48.6,34.9,29.68,SSW,202,3.0,3.0,59,0.03,,,0.03,0000,Weather View 32 v70,2013-02-04 17:44:00,
2013-02-04 11:49:00,49.3,35.5,29.68,SSW,202,3.0,3.0,59,0.00,,,0.03,0000,Weather View 32 v70,2013-02-04 17:49:00,
2013-02-04 11:54:00,50.0,35.3,29.68,SSW,202,4.0,4.0,57,0.00,,,0.03,0000,Weather View 32 v70,2013-02-04 17:54:00,
2013-02-04 11:59:00,50.0,35.3,29.68,WNW,292,5.0,5.0,57,0.00,,,0.03,0000,Weather View 32 v70,2013-02-04 17:59:00,
2013-02-04 12:09:00,50.9,35.7,29.67,SSW,202,5.0,5.0,56,0.00,,,0.03,0000,Weather View 32 v70,2013-02-04 18:09:00,
2013-02-04 12:14:00,51.4,36.2,29.67,SSE,158,5.0,5.0,56,0.00,,,0.03,0000,Weather View 32 v70,2013-02-04 18:14:00,
2013-02-04 12:19:00,51.6,36.4,29.67,South,180,4.0,5.0,56,0.00,,,0.03,0000,Weather View 32 v70,2013-02-04 18:19:00,
2013-02-04 12:29:00,52.2,36.9,29.67,SW,225,4.0,5.0,56,0.00,,,0.03,0000,Weather View 32 v70,2013-02-04 18:29:00,
2013-02-04 12:34:00,52.3,37.1,29.67,SW,225,4.0,5.0,56,0.00,,,0.03,0000,Weather View 32 v70,2013-02-04 18:34:00,
2013-02-04 12:39:00,52.7,37.0,29.67,South,180,4.0,5.0,55,0.00,,,0.03,0000,Weather View 32 v70,2013-02-04 18:39:00,
2013-02-04 12:44:00,53.1,37.7,29.67,SSW,202,4.0,5.0,56,0.00,,,0.03,0000,Weather View 32 v70,2013-02-04 18:44:00,
2013-02-04 12:49:00,53.2,37.5,29.67,SSW,202,4.0,5.0,55,0.00,,,0.03,0000,Weather View 32 v70,2013-02-04 18:49:00,
2013-02-04 12:54:00,53.4,37.6,29.67,SSW,202,5.0,5.0,55,0.00,,,0.03,0000,Weather View 32 v70,2013-02-04 18:54:00,
2013-02-04 13:04:00,54.1,37.8,29.66,ESE,112,5.0,5.0,54,0.00,,,0.03,0000,Weather View 32 v70,2013-02-04 19:04:00,
2013-02-04 13:09:00,54.5,38.2,29.66,South,180,5.0,5.0,54,0.00,,,0.03,0000,Weather View 32 v70,2013-02-04 19:09:00,
2013-02-04 13:14:00,54.5,38.2,29.66,SSW,202,4.0,5.0,54,0.00,,,0.03,0000,Weather View 32 v70,2013-02-04 19:14:00,
2013-02-04 13:19:00,54.7,38.3,29.66,WSW,248,4.0,5.0,54,0.00,,,0.03,0000,Weather View 32 v70,2013-02-04 19:19:00,
2013-02-04 13:24:00,54.9,38.0,29.65,SW,225,4.0,5.0,53,0.00,,,0.03,0000,Weather View 32 v70,2013-02-04 19:24:00,
2013-02-04 13:34:00,54.5,36.2,29.65,West,270,3.0,5.0,50,0.00,,,0.03,0000,Weather View 32 v70,2013-02-04 19:34:00,
2013-02-04 13:39:00,54.5,36.7,29.65,NW,315,3.0,5.0,51,0.00,,,0.03,0000,Weather View 32 v70,2013-02-04 19:39:00,
2013-02-04 13:44:00,54.0,36.2,29.66,NW,315,3.0,5.0,51,0.00,,,0.03,0000,Weather View 32 v70,2013-02-04 19:44:00,
2013-02-04 13:54:00,53.8,36.0,29.66,WSW,248,2.0,5.0,51,0.00,,,0.03,0000,Weather View 32 v70,2013-02-04 19:54:00,
2013-02-04 13:59:00,53.6,35.9,29.66,North,0,3.0,5.0,51,0.00,,,0.03,0000,Weather View 32 v70,2013-02-04 19:59:00,
2013-02-04 14:04:00,53.4,35.7,29.67,WNW,292,3.0,5.0,51,0.00,,,0.03,0000,Weather View 32 v70,2013-02-04 20:04:00,
2013-02-04 14:09:00,53.1,35.9,29.67,WNW,292,3.0,5.0,52,0.00,,,0.03,0000,Weather View 32 v70,2013-02-04 20:09:00,
2013-02-04 14:14:00,53.1,35.4,29.67,South,180,3.0,4.0,51,0.00,,,0.03,0000,Weather View 32 v70,2013-02-04 20:14:00,
2013-02-04 14:19:00,52.7,35.5,29.67,West,270,3.0,4.0,52,0.00,,,0.03,0000,Weather View 32 v70,2013-02-04 20:19:00,
2013-02-04 14:24:00,52.2,34.5,29.67,SSW,202,4.0,4.0,51,0.00,,,0.03,0000,Weather View 32 v70,2013-02-04 20:24:00,
2013-02-04 14:29:00,52.0,34.9,29.67,NW,315,4.0,4.0,52,0.00,,,0.03,0000,Weather View 32 v70,2013-02-04 20:29:00,
2013-02-04 14:34:00,51.6,34.5,29.67,WSW,248,4.0,4.0,52,0.00,,,0.03,0000,Weather View 32 v70,2013-02-04 20:34:00,
2013-02-04 14:44:00,51.3,34.2,29.67,NW,315,3.0,4.0,52,0.00,,,0.03,0000,Weather View 32 v70,2013-02-04 20:44:00,
2013-02-04 14:49:00,51.3,34.7,29.67,SW,225,3.0,4.0,53,0.00,,,0.03,0000,Weather View 32 v70,2013-02-04 20:49:00,
2013-02-04 14:54:00,51.1,35.0,29.67,NNE,22,3.0,4.0,54,0.00,,,0.03,0000,Weather View 32 v70,2013-02-04 20:54:00,
2013-02-04 14:59:00,50.7,34.6,29.67,SW,225,3.0,4.0,54,0.00,,,0.03,0000,Weather View 32 v70,2013-02-04 20:59:00,
2013-02-04 15:04:00,50.5,34.5,29.67,West,270,3.0,4.0,54,0.00,,,0.03,0000,Weather View 32 v70,2013-02-04 21:04:00,
2013-02-04 15:09:00,50.5,34.5,29.67,SSE,158,4.0,4.0,54,0.00,,,0.03,0000,Weather View 32 v70,2013-02-04 21:09:00,
2013-02-04 15:19:00,50.0,34.0,29.67,SW,225,3.0,4.0,54,0.00,,,0.03,0000,Weather View 32 v70,2013-02-04 21:19:00,
2013-02-04 15:24:00,50.0,34.0,29.68,WSW,248,2.0,4.0,54,0.00,,,0.03,0000,Weather View 32 v70,2013-02-04 21:24:00,
2013-02-04 15:29:00,49.8,33.8,29.68,WNW,292,2.0,4.0,54,0.00,,,0.03,0000,Weather View 32 v70,2013-02-04 21:29:00,
2013-02-04 15:34:00,49.8,33.8,29.68,WSW,248,3.0,4.0,54,0.00,,,0.03,0000,Weather View 32 v70,2013-02-04 21:34:00,
2013-02-04 15:39:00,49.5,33.5,29.68,SW,225,3.0,4.0,54,0.00,,,0.03,0000,Weather View 32 v70,2013-02-04 21:39:00,
2013-02-04 15:44:00,49.1,33.1,29.69,NNW,338,3.0,4.0,54,0.00,,,0.03,0000,Weather View 32 v70,2013-02-04 21:44:00,
2013-02-04 15:49:00,49.1,33.1,29.69,NNW,338,3.0,4.0,54,0.00,,,0.03,0000,Weather View 32 v70,2013-02-04 21:49:00,
2013-02-04 15:54:00,48.7,33.3,29.69,SW,225,2.0,4.0,55,0.00,,,0.03,0000,Weather View 32 v70,2013-02-04 21:54:00,
2013-02-04 15:59:00,48.6,33.1,29.69,NW,315,3.0,4.0,55,0.00,,,0.03,0000,Weather View 32 v70,2013-02-04 21:59:00,
2013-02-04 16:09:00,48.4,33.4,29.69,NW,315,3.0,4.0,56,0.00,,,0.03,0000,Weather View 32 v70,2013-02-04 22:09:00,
2013-02-04 16:14:00,47.8,32.9,29.69,WNW,292,4.0,4.0,56,0.00,,,0.03,0000,Weather View 32 v70,2013-02-04 22:14:00,
2013-02-04 16:19:00,47.7,33.1,29.69,WNW,292,4.0,4.0,57,0.00,,,0.03,0000,Weather View 32 v70,2013-02-04 22:19:00,
2013-02-04 16:24:00,47.1,32.6,29.69,WNW,292,3.0,4.0,57,0.00,,,0.03,0000,Weather View 32 v70,2013-02-04 22:24:00,
2013-02-04 16:29:00,46.9,32.9,29.69,West,270,3.0,4.0,58,0.00,,,0.03,0000,Weather View 32 v70,2013-02-04 22:29:00,
2013-02-04 16:34:00,46.9,32.9,29.69,NW,315,3.0,4.0,58,0.00,,,0.03,0000,Weather View 32 v70,2013-02-04 22:34:00,
2013-02-04 16:39:00,46.4,32.4,29.69,North,0,2.0,4.0,58,0.00,,,0.03,0000,Weather View 32 v70,2013-02-04 22:39:00,
2013-02-04 16:49:00,45.9,32.3,29.71,WNW,292,2.0,4.0,59,0.00,,,0.03,0000,Weather View 32 v70,2013-02-04 22:49:00,
2013-02-04 16:54:00,45.7,32.6,29.71,WNW,292,2.0,4.0,60,0.00,,,0.03,0000,Weather View 32 v70,2013-02-04 22:54:00,
2013-02-04 16:59:00,45.1,32.1,29.71,SW,225,2.0,4.0,60,0.00,,,0.03,0000,Weather View 32 v70,2013-02-04 22:59:00,
2013-02-04 17:04:00,45.0,31.9,29.69,West,270,2.0,4.0,60,0.00,,,0.03,0000,Weather View 32 v70,2013-02-04 23:04:00,
2013-02-04 17:09:00,44.8,32.1,29.69,WNW,292,2.0,4.0,61,0.00,,,0.03,0000,Weather View 32 v70,2013-02-04 23:09:00,
2013-02-04 17:14:00,44.4,31.8,29.69,West,270,2.0,4.0,61,0.00,,,0.03,0000,Weather View 32 v70,2013-02-04 23:14:00,
2013-02-04 17:19:00,44.1,31.9,29.69,NNW,338,2.0,4.0,62,0.00,,,0.03,0000,Weather View 32 v70,2013-02-04 23:19:00,
2013-02-04 17:24:00,44.1,31.9,29.69,NNE,22,2.0,3.0,62,0.00,,,0.03,0000,Weather View 32 v70,2013-02-04 23:24:00,
2013-02-04 17:29:00,43.5,31.3,29.69,South,180,2.0,3.0,62,0.00,,,0.03,0000,Weather View 32 v70,2013-02-04 23:29:00,
2013-02-04 17:34:00,43.3,31.6,29.69,NW,315,2.0,3.0,63,0.00,,,0.03,0000,Weather View 32 v70,2013-02-04 23:34:00,
2013-02-04 17:39:00,43.3,31.6,29.69,SW,225,2.0,2.0,63,0.00,,,0.03,0000,Weather View 32 v70,2013-02-04 23:39:00,
2013-02-04 17:49:00,42.8,31.1,29.70,WNW,292,2.0,2.0,63,0.00,,,0.03,0000,Weather View 32 v70,2013-02-04 23:49:00,
2013-02-04 17:54:00,42.3,30.9,29.70,West,270,1.0,2.0,64,0.00,,,0.03,0000,Weather View 32 v70,2013-02-04 23:54:00,
2013-02-04 17:59:00,42.1,31.1,29.70,NW,315,1.0,2.0,65,0.00,,,0.03,0000,Weather View 32 v70,2013-02-04 23:59:00,
2013-02-04 18:04:00,41.5,30.6,29.71,WNW,292,1.0,2.0,65,0.00,,,0.03,0000,Weather View 32 v70,2013-02-05 00:04:00,
2013-02-04 18:09:00,41.5,31.0,29.71,SW,225,1.0,2.0,66,0.00,,,0.03,0000,Weather View 32 v70,2013-02-05 00:09:00,
2013-02-04 18:14:00,41.2,30.7,29.71,NW,315,2.0,2.0,66,0.00,,,0.03,0000,Weather View 32 v70,2013-02-05 00:14:00,
2013-02-04 18:19:00,40.8,30.3,29.71,NW,315,2.0,2.0,66,0.00,,,0.03,0000,Weather View 32 v70,2013-02-05 00:19:00,
2013-02-04 18:24:00,40.5,30.0,29.73,WNW,292,2.0,3.0,66,0.00,,,0.03,0000,Weather View 32 v70,2013-02-05 00:24:00,
2013-02-04 18:29:00,40.1,29.6,29.73,West,270,2.0,3.0,66,0.00,,,0.03,0000,Weather View 32 v70,2013-02-05 00:29:00,
2013-02-04 18:34:00,39.7,29.3,29.73,North,0,2.0,3.0,66,0.00,,,0.03,0000,Weather View 32 v70,2013-02-05 00:34:00,
2013-02-04 18:39:00,39.4,29.0,29.73,NW,315,2.0,3.0,66,0.00,,,0.03,0000,Weather View 32 v70,2013-02-05 00:39:00,
2013-02-04 18:49:00,38.8,28.8,29.74,SW,225,1.0,3.0,67,0.00,,,0.03,0000,Weather View 32 v70,2013-02-05 00:49:00,
2013-02-04 18:54:00,38.7,28.6,29.74,SSW,202,1.0,3.0,67,0.00,,,0.03,0000,Weather View 32 v70,2013-02-05 00:54:00,
2013-02-04 18:59:00,38.3,28.3,29.74,WNW,292,1.0,3.0,67,0.00,,,0.03,0000,Weather View 32 v70,2013-02-05 00:59:00,
2013-02-04 19:04:00,38.1,28.1,29.74,WNW,292,2.0,3.0,67,0.00,,,0.03,0000,Weather View 32 v70,2013-02-05 01:04:00,
2013-02-04 19:09:00,37.9,28.0,29.74,NW,315,2.0,3.0,67,0.00,,,0.03,0000,Weather View 32 v70,2013-02-05 01:09:00,
2013-02-04 19:14:00,37.8,28.1,29.74,NW,315,2.0,3.0,68,0.00,,,0.03,0000,Weather View 32 v70,2013-02-05 01:14:00,
2013-02-04 19:19:00,37.8,28.1,29.74,NW,315,2.0,3.0,68,0.00,,,0.03,0000,Weather View 32 v70,2013-02-05 01:19:00,
2013-02-04 19:24:00,37.6,28.0,29.74,North,0,1.0,2.0,68,0.00,,,0.03,0000,Weather View 32 v70,2013-02-05 01:24:00,
2013-02-04 19:29:00,37.6,28.0,29.74,WSW,248,1.0,2.0,68,0.00,,,0.03,0000,Weather View 32 v70,2013-02-05 01:29:00,
2013-02-04 19:40:00,36.7,27.5,29.74,North,0,3.0,3.0,69,0.00,,,0.03,0000,Weather View 32 v70,2013-02-05 01:40:00,
2013-02-04 19:49:00,36.5,27.3,29.77,WNW,292,4.0,4.0,69,0.00,,,0.03,0000,Weather View 32 v70,2013-02-05 01:49:00,
2013-02-04 19:54:00,36.0,26.8,29.77,NNW,338,4.0,4.0,69,0.00,,,0.03,0000,Weather View 32 v70,2013-02-05 01:54:00,
2013-02-04 19:59:00,35.6,26.4,29.77,NW,315,3.0,4.0,69,0.00,,,0.03,0000,Weather View 32 v70,2013-02-05 01:59:00,
2013-02-04 20:04:00,35.6,26.8,29.79,NNW,338,3.0,4.0,70,0.00,,,0.03,0000,Weather View 32 v70,2013-02-05 02:04:00,
2013-02-04 20:09:00,35.4,26.6,29.79,ESE,112,3.0,4.0,70,0.00,,,0.03,0000,Weather View 32 v70,2013-02-05 02:09:00,
2013-02-04 20:14:00,34.9,26.1,29.79,NW,315,3.0,4.0,70,0.00,,,0.03,0000,Weather View 32 v70,2013-02-05 02:14:00,
2013-02-04 20:19:00,34.7,25.9,29.79,North,0,3.0,4.0,70,0.00,,,0.03,0000,Weather View 32 v70,2013-02-05 02:19:00,
2013-02-04 20:24:00,34.3,25.9,29.78,NW,315,3.0,4.0,71,0.00,,,0.03,0000,Weather View 32 v70,2013-02-05 02:24:00,
2013-02-04 20:29:00,34.3,25.9,29.78,NW,315,3.0,4.0,71,0.00,,,0.03,0000,Weather View 32 v70,2013-02-05 02:29:00,
2013-02-04 20:39:00,33.6,25.2,29.78,North,0,3.0,4.0,71,0.00,,,0.03,0000,Weather View 32 v70,2013-02-05 02:39:00,
2013-02-04 20:44:00,33.4,25.0,29.80,NW,315,3.0,4.0,71,0.00,,,0.03,0000,Weather View 32 v70,2013-02-05 02:44:00,
2013-02-04 20:49:00,33.3,25.2,29.80,WNW,292,2.0,4.0,72,0.00,,,0.03,0000,Weather View 32 v70,2013-02-05 02:49:00,
2013-02-04 20:54:00,33.3,25.2,29.80,NW,315,2.0,4.0,72,0.00,,,0.03,0000,Weather View 32 v70,2013-02-05 02:54:00,
2013-02-04 20:59:00,33.1,25.0,29.80,NNW,338,2.0,3.0,72,0.00,,,0.03,0000,Weather View 32 v70,2013-02-05 02:59:00,
2013-02-04 21:09:00,32.9,25.2,29.81,SW,225,2.0,3.0,73,0.00,,,0.03,0000,Weather View 32 v70,2013-02-05 03:09:00,
2013-02-04 21:14:00,32.9,25.2,29.81,NW,315,2.0,3.0,73,0.00,,,0.03,0000,Weather View 32 v70,2013-02-05 03:14:00,
2013-02-04 21:19:00,32.9,25.2,29.81,North,0,3.0,3.0,73,0.00,,,0.03,0000,Weather View 32 v70,2013-02-05 03:19:00,
2013-02-04 21:24:00,33.1,25.4,29.81,North,0,2.0,3.0,73,0.00,,,0.03,0000,Weather View 32 v70,2013-02-05 03:24:00,
2013-02-04 21:34:00,32.9,25.2,29.81,NNW,338,1.0,3.0,73,0.00,,,0.03,0000,Weather View 32 v70,2013-02-05 03:34:00,
2013-02-04 21:41:00,32.9,25.2,29.81,East,90,1.0,3.0,73,0.00,,,0.03,0000,Weather View 32 v70,2013-02-05 03:41:00,
2013-02-04 21:49:00,32.9,25.2,29.79,WNW,292,1.0,3.0,73,0.00,,,0.03,0000,Weather View 32 v70,2013-02-05 03:49:00,
2013-02-04 21:54:00,32.9,25.2,29.79,ENE,68,1.0,3.0,73,0.00,,,0.03,0000,Weather View 32 v70,2013-02-05 03:54:00,
2013-02-04 22:04:00,32.9,25.5,29.80,NNE,22,1.0,3.0,74,0.00,,,0.03,0000,Weather View 32 v70,2013-02-05 04:04:00,
2013-02-04 22:09:00,32.9,25.2,29.80,NNW,338,1.0,3.0,73,0.00,,,0.03,0000,Weather View 32 v70,2013-02-05 04:09:00,
2013-02-04 22:14:00,32.7,25.3,29.80,North,0,1.0,3.0,74,0.00,,,0.03,0000,Weather View 32 v70,2013-02-05 04:14:00,
2013-02-04 22:19:00,32.9,25.2,29.80,NW,315,1.0,3.0,73,0.00,,,0.03,0000,Weather View 32 v70,2013-02-05 04:19:00,
2013-02-04 22:29:00,32.7,25.3,29.80,NW,315,2.0,2.0,74,0.00,,,0.03,0000,Weather View 32 v70,2013-02-05 04:29:00,
2013-02-04 22:34:00,32.5,25.2,29.80,North,0,1.0,2.0,74,0.00,,,0.03,0000,Weather View 32 v70,2013-02-05 04:34:00,
2013-02-04 22:39:00,32.5,25.2,29.80,North,0,1.0,2.0,74,0.00,,,0.03,0000,Weather View 32 v70,2013-02-05 04:39:00,
2013-02-04 22:44:00,32.5,25.2,29.80,North,0,1.0,2.0,74,0.00,,,0.03,0000,Weather View 32 v70,2013-02-05 04:44:00,
2013-02-04 22:49:00,32.5,25.2,29.80,North,0,1.0,2.0,74,0.00,,,0.03,0000,Weather View 32 v70,2013-02-05 04:49:00,
2013-02-04 22:54:00,32.5,25.2,29.80,NNW,338,1.0,2.0,74,0.00,,,0.03,0000,Weather View 32 v70,2013-02-05 04:54:00,
2013-02-04 23:04:00,32.4,25.0,29.80,WNW,292,0.0,2.0,74,0.00,,,0.03,0000,Weather View 32 v70,2013-02-05 05:04:00,
2013-02-04 23:09:00,32.5,25.2,29.80,NW,315,1.0,2.0,74,0.00,,,0.03,0000,Weather View 32 v70,2013-02-05 05:09:00,
2013-02-04 23:14:00,32.4,25.0,29.80,NNW,338,1.0,2.0,74,0.00,,,0.03,0000,Weather View 32 v70,2013-02-05 05:14:00,
2013-02-04 23:19:00,32.5,25.2,29.80,NW,315,1.0,2.0,74,0.00,,,0.03,0000,Weather View 32 v70,2013-02-05 05:19:00,
2013-02-04 23:24:00,32.5,25.2,29.80,WNW,292,1.0,2.0,74,0.00,,,0.03,0000,Weather View 32 v70,2013-02-05 05:24:00,
2013-02-04 23:29:00,32.5,25.2,29.80,WNW,292,1.0,2.0,74,0.00,,,0.03,0000,Weather View 32 v70,2013-02-05 05:29:00,
2013-02-04 23:39:00,32.5,25.5,29.80,SSW,202,0.0,1.0,75,0.00,,,0.03,0000,Weather View 32 v70,2013-02-05 05:39:00,
2013-02-04 23:44:00,32.4,25.0,29.80,WNW,292,1.0,1.0,74,0.00,,,0.03,0000,Weather View 32 v70,2013-02-05 05:44:00,
2013-02-04 23:49:00,32.5,25.5,29.80,WNW,292,1.0,1.0,75,0.00,,,0.03,0000,Weather View 32 v70,2013-02-05 05:49:00,
2013-02-04 23:59:00,32.5,25.5,29.80,North,0,1.0,1.0,75,0.00,,,0.00,0000,Weather View 32 v70,2013-02-05 05:59:00,